Norfolk — WDG2147 — position and weather

sailwx.info

Track history (hours):
 
Tides and Currents Weather Stations Pressure Air Temp Water Temp Dewpoint Dewpoint Depression Visibility Wind Speed Wind Dir Waves Ship Positions

Norfolk

Owner: Virginia Pilot Boat Corporation, Virginia Beach, VA. More information available from US FCC via Universal Licensing System and Coast Guard Vessel Documentation Center.

Last reported at 2017-Mar-24 21:27 UTC. Time now 2017-Mar-25 07:55 UTC.
Position N 36°54' W 076°05'.

Length 18 m; draft 1.5 m.

Type: Pilot. MMSI: 367512630.

Date/timePositionNaut miles runAvg speedWind from/ knotsBaromVisibWave heightAir tempDewpointWater temp
2017-Mar-24 21:27N 36°54' W 076°05'4 4.1
2017-Mar-24 20:33N 36°56' W 076°01'1 1.1
2017-Mar-24 19:25N 36°57' W 076°03'4 4.3
2017-Mar-24 18:34N 36°54' W 076°05'0 0.0
2017-Mar-24 17:05N 36°54' W 076°05'4 2.2
2017-Mar-24 15:28N 36°58' W 076°04'8 7.6
2017-Mar-24 14:26N 36°55' W 075°55'8 4.4
2017-Mar-24 12:32N 36°54' W 076°05'3 2.3
2017-Mar-24 11:22N 36°56' W 076°03'3 0.7
2017-Mar-24 07:32N 36°54' W 076°06'2 0.2
2017-Mar-23 19:33N 36°56' W 076°04'2 1.4
2017-Mar-23 18:13N 36°54' W 076°05'3 1.3
2017-Mar-23 16:11N 36°57' W 076°05'8 4.7
2017-Mar-23 14:31N 36°55' W 075°55'8 3.6
2017-Mar-23 12:18N 36°54' W 076°05'8 9.0
2017-Mar-23 11:27N 36°55' W 075°56'8 0.7
2017-Mar-22 23:26N 36°54' W 076°06'3 0.9
2017-Mar-22 20:27N 36°57' W 076°05'1 0.1
2017-Mar-22 12:12N 36°58' W 076°05'3 4.7
2017-Mar-22 11:30N 36°54' W 076°05'1 0.1
2017-Mar-21 23:21N 36°55' W 076°05'1 1.2
2017-Mar-21 22:33N 36°54' W 076°05'0 0.0
2017-Mar-21 21:32N 36°54' W 076°05'0 0.0
2017-Mar-21 20:31N 36°54' W 076°05'0 0.0
2017-Mar-21 19:26N 36°54' W 076°05'3 3.8
2017-Mar-21 18:33N 36°56' W 076°02'3 2.5
2017-Mar-21 17:13N 36°54' W 076°05'0 0.0
2017-Mar-21 15:33N 36°54' W 076°05'6 6.1
2017-Mar-21 14:32N 36°59' W 076°01'5 4.6
2017-Mar-21 13:33N 36°56' W 076°04'2 1.7
2017-Mar-21 12:28N 36°54' W 076°05'3 3.0
2017-Mar-21 11:33N 36°56' W 076°03'3 0.2
2017-Mar-20 21:19N 36°54' W 076°05'4 1.3
2017-Mar-20 18:15N 36°58' W 076°05'4 5.0
2017-Mar-20 17:28N 36°54' W 076°05'0 0.0
2017-Mar-20 16:33N 36°54' W 076°05'0 0.0
2017-Mar-20 13:05N 36°54' W 076°05'0 0.0
2017-Mar-19 23:12N 36°54' W 076°05'1 0.1
2017-Mar-19 15:33N 36°55' W 076°05'1 0.4
2017-Mar-19 12:32N 36°54' W 076°05'2 2.0
2017-Mar-19 11:33N 36°56' W 076°04'2 0.4
2017-Mar-19 06:27N 36°57' W 076°02'3 0.4
2017-Mar-18 23:18N 36°55' W 076°05'1 0.3
2017-Mar-18 20:11N 36°54' W 076°05'1 1.2
2017-Mar-18 19:33N 36°55' W 076°05'1 0.1
2017-Mar-18 13:09N 36°54' W 076°05'4 6.6
2017-Mar-18 12:33N 36°57' W 076°02'1 0.8
2017-Mar-18 11:28N 36°57' W 076°03'4 0.9
2017-Mar-18 07:19N 36°54' W 076°05'0 0.0
2017-Mar-17 21:33N 36°54' W 076°05'5 4.8
2017-Mar-17 20:30N 36°57' W 076°00'5 2.5
2017-Mar-17 18:25N 36°54' W 076°05'3 3.1
2017-Mar-17 17:22N 36°56' W 076°02'3 3.9
2017-Mar-17 16:33N 36°54' W 076°05'0 0.0
2017-Mar-17 15:33N 36°54' W 076°05'3 2.6
2017-Mar-17 14:19N 36°56' W 076°02'3 1.8
2017-Mar-17 12:33N 36°54' W 076°05'4 3.4
2017-Mar-17 11:29N 36°56' W 076°01'3 0.2
2017-Mar-16 22:25N 36°55' W 076°05'1 0.8
2017-Mar-16 21:08N 36°54' W 076°05'0 0.0
2017-Mar-16 19:30N 36°54' W 076°05'0 0.0
2017-Mar-16 17:33N 36°54' W 076°05'2 0.4
2017-Mar-16 13:17N 36°56' W 076°06'2 2.1
2017-Mar-16 12:33N 36°54' W 076°05'0 0.0
2017-Mar-15 22:33N 36°54' W 076°05'0 0.0
2017-Mar-15 21:28N 36°54' W 076°05'0 0.0
2017-Mar-15 20:33N 36°54' W 076°05'2 0.3
2017-Mar-15 13:13N 36°57' W 076°05'2 3.1
2017-Mar-15 12:32N 36°54' W 076°05'4 0.8
2017-Mar-15 07:17N 36°57' W 076°01'3 3.7
2017-Mar-15 06:23N 36°55' W 076°05'1 0.1
2017-Mar-14 21:29N 36°57' W 076°05'  
Track history (hours):
 
Tides and Currents Weather Stations Pressure Air Temp Water Temp Dewpoint Dewpoint Depression Visibility Wind Speed Wind Dir Waves Ship Positions

Norfolk

Owner: Virginia Pilot Boat Corporation, Virginia Beach, VA. More information available from US FCC via Universal Licensing System and Coast Guard Vessel Documentation Center.

Last reported at 2017-Mar-24 21:27 UTC. Time now 2017-Mar-25 07:55 UTC.
Position N 36°54' W 076°05'.

Length 18 m; draft 1.5 m.

Type: Pilot. MMSI: 367512630.

Date/timePositionNaut miles runAvg speedWind from/ knotsBaromVisibWave heightAir tempDewpointWater temp
2017-Mar-24 21:27N 36°54' W 076°05'4 4.1
2017-Mar-24 20:33N 36°56' W 076°01'1 1.1
2017-Mar-24 19:25N 36°57' W 076°03'4 4.3
2017-Mar-24 18:34N 36°54' W 076°05'0 0.0
2017-Mar-24 17:05N 36°54' W 076°05'4 2.2
2017-Mar-24 15:28N 36°58' W 076°04'8 7.6
2017-Mar-24 14:26N 36°55' W 075°55'8 4.4
2017-Mar-24 12:32N 36°54' W 076°05'3 2.3
2017-Mar-24 11:22N 36°56' W 076°03'3 0.7
2017-Mar-24 07:32N 36°54' W 076°06'2 0.2
2017-Mar-23 19:33N 36°56' W 076°04'2 1.4
2017-Mar-23 18:13N 36°54' W 076°05'3 1.3
2017-Mar-23 16:11N 36°57' W 076°05'8 4.7
2017-Mar-23 14:31N 36°55' W 075°55'8 3.6
2017-Mar-23 12:18N 36°54' W 076°05'8 9.0
2017-Mar-23 11:27N 36°55' W 075°56'8 0.7
2017-Mar-22 23:26N 36°54' W 076°06'3 0.9
2017-Mar-22 20:27N 36°57' W 076°05'1 0.1
2017-Mar-22 12:12N 36°58' W 076°05'3 4.7
2017-Mar-22 11:30N 36°54' W 076°05'1 0.1
2017-Mar-21 23:21N 36°55' W 076°05'1 1.2
2017-Mar-21 22:33N 36°54' W 076°05'0 0.0
2017-Mar-21 21:32N 36°54' W 076°05'0 0.0
2017-Mar-21 20:31N 36°54' W 076°05'0 0.0
2017-Mar-21 19:26N 36°54' W 076°05'3 3.8
2017-Mar-21 18:33N 36°56' W 076°02'3 2.5
2017-Mar-21 17:13N 36°54' W 076°05'0 0.0
2017-Mar-21 15:33N 36°54' W 076°05'6 6.1
2017-Mar-21 14:32N 36°59' W 076°01'5 4.6
2017-Mar-21 13:33N 36°56' W 076°04'2 1.7
2017-Mar-21 12:28N 36°54' W 076°05'3 3.0
2017-Mar-21 11:33N 36°56' W 076°03'3 0.2
2017-Mar-20 21:19N 36°54' W 076°05'4 1.3
2017-Mar-20 18:15N 36°58' W 076°05'4 5.0
2017-Mar-20 17:28N 36°54' W 076°05'0 0.0
2017-Mar-20 16:33N 36°54' W 076°05'0 0.0
2017-Mar-20 13:05N 36°54' W 076°05'0 0.0
2017-Mar-19 23:12N 36°54' W 076°05'1 0.1
2017-Mar-19 15:33N 36°55' W 076°05'1 0.4
2017-Mar-19 12:32N 36°54' W 076°05'2 2.0
2017-Mar-19 11:33N 36°56' W 076°04'2 0.4
2017-Mar-19 06:27N 36°57' W 076°02'3 0.4
2017-Mar-18 23:18N 36°55' W 076°05'1 0.3
2017-Mar-18 20:11N 36°54' W 076°05'1 1.2
2017-Mar-18 19:33N 36°55' W 076°05'1 0.1
2017-Mar-18 13:09N 36°54' W 076°05'4 6.6
2017-Mar-18 12:33N 36°57' W 076°02'1 0.8
2017-Mar-18 11:28N 36°57' W 076°03'4 0.9
2017-Mar-18 07:19N 36°54' W 076°05'0 0.0
2017-Mar-17 21:33N 36°54' W 076°05'5 4.8
2017-Mar-17 20:30N 36°57' W 076°00'5 2.5
2017-Mar-17 18:25N 36°54' W 076°05'3 3.1
2017-Mar-17 17:22N 36°56' W 076°02'3 3.9
2017-Mar-17 16:33N 36°54' W 076°05'0 0.0
2017-Mar-17 15:33N 36°54' W 076°05'3 2.6
2017-Mar-17 14:19N 36°56' W 076°02'3 1.8
2017-Mar-17 12:33N 36°54' W 076°05'4 3.4
2017-Mar-17 11:29N 36°56' W 076°01'3 0.2
2017-Mar-16 22:25N 36°55' W 076°05'1 0.8
2017-Mar-16 21:08N 36°54' W 076°05'0 0.0
2017-Mar-16 19:30N 36°54' W 076°05'0 0.0
2017-Mar-16 17:33N 36°54' W 076°05'2 0.4
2017-Mar-16 13:17N 36°56' W 076°06'2 2.1
2017-Mar-16 12:33N 36°54' W 076°05'0 0.0
2017-Mar-15 22:33N 36°54' W 076°05'0 0.0
2017-Mar-15 21:28N 36°54' W 076°05'0 0.0
2017-Mar-15 20:33N 36°54' W 076°05'2 0.3
2017-Mar-15 13:13N 36°57' W 076°05'2 3.1
2017-Mar-15 12:32N 36°54' W 076°05'4 0.8
2017-Mar-15 07:17N 36°57' W 076°01'3 3.7
2017-Mar-15 06:23N 36°55' W 076°05'1 0.1
2017-Mar-14 21:29N 36°57' W 076°05'  

Dump ship's entire track history